createdAt,value
2023-03-17T00:02:09.033Z,4.70
2023-03-17T00:04:37.167Z,4.70
2023-03-17T00:07:06.063Z,4.70
2023-03-17T00:09:34.161Z,4.60
2023-03-17T00:12:04.943Z,4.60
2023-03-17T00:14:32.943Z,4.60
2023-03-17T00:17:01.219Z,4.60
2023-03-17T00:19:33.493Z,4.70
2023-03-17T00:22:02.775Z,4.70
2023-03-17T00:24:33.947Z,4.70
2023-03-17T00:27:02.683Z,4.60
2023-03-17T00:29:33.295Z,4.50
2023-03-17T00:32:04.211Z,4.50
2023-03-17T00:34:32.223Z,4.60
2023-03-17T00:37:02.396Z,4.60
2023-03-17T00:39:30.486Z,4.60
2023-03-17T00:41:58.530Z,4.70
2023-03-17T00:44:26.796Z,4.70
2023-03-17T00:46:58.071Z,4.70
2023-03-17T00:49:28.649Z,4.70
2023-03-17T00:51:57.373Z,4.70
2023-03-17T00:54:28.181Z,4.70
2023-03-17T00:56:59.498Z,4.70
2023-03-17T00:59:35.817Z,4.70
2023-03-17T01:02:04.004Z,4.70
2023-03-17T01:04:32.622Z,4.60
2023-03-17T01:07:03.708Z,4.60
2023-03-17T01:09:35.109Z,4.60
2023-03-17T01:12:03.428Z,4.60
2023-03-17T01:14:31.370Z,4.60
2023-03-17T01:17:04.360Z,4.60
2023-03-17T01:19:33.007Z,4.60
2023-03-17T01:22:03.533Z,4.60
2023-03-17T01:24:32.210Z,4.60
2023-03-17T01:27:02.611Z,4.70
2023-03-17T01:29:33.592Z,4.70
2023-03-17T01:32:04.332Z,4.70
2023-03-17T01:34:33.191Z,4.70
2023-03-17T01:37:01.141Z,4.60
2023-03-17T01:39:31.620Z,4.50
2023-03-17T01:42:01.743Z,4.50
2023-03-17T01:44:31.118Z,4.50
2023-03-17T01:46:59.441Z,4.50
2023-03-17T01:49:27.401Z,4.60
2023-03-17T01:52:09.471Z,4.60
2023-03-17T01:54:44.671Z,4.60
2023-03-17T01:57:31.716Z,4.60
2023-03-17T02:00:06.620Z,4.60
2023-03-17T02:02:44.204Z,4.60
2023-03-17T02:05:17.515Z,4.60
2023-03-17T02:07:48.808Z,4.60
2023-03-17T02:10:19.675Z,4.60
2023-03-17T02:12:51.305Z,4.50
2023-03-17T02:15:20.257Z,4.50
2023-03-17T02:17:48.923Z,4.50
2023-03-17T02:20:16.778Z,4.60
2023-03-17T02:22:49.899Z,4.50
2023-03-17T02:25:20.369Z,4.60
2023-03-17T02:27:54.634Z,4.60
2023-03-17T02:30:23.936Z,4.60
2023-03-17T02:32:52.190Z,4.60
2023-03-17T02:35:23.730Z,4.50
2023-03-17T02:37:54.655Z,4.50
2023-03-17T02:40:22.868Z,4.50
2023-03-17T02:42:51.583Z,4.50
2023-03-17T02:45:21.895Z,4.50
2023-03-17T02:47:51.793Z,4.60
2023-03-17T02:50:22.904Z,4.60
2023-03-17T02:52:53.696Z,4.60
2023-03-17T02:55:21.667Z,4.60
2023-03-17T02:57:50.511Z,4.50
2023-03-17T03:00:23.378Z,4.50
2023-03-17T03:02:56.187Z,4.50
2023-03-17T03:05:24.232Z,4.50
2023-03-17T03:07:54.318Z,4.40
2023-03-17T03:10:22.491Z,4.50
2023-03-17T03:12:53.263Z,4.50
2023-03-17T03:15:24.579Z,4.50
2023-03-17T03:17:52.780Z,4.50
2023-03-17T03:20:21.325Z,4.50
2023-03-17T03:22:49.511Z,4.50
2023-03-17T03:25:19.736Z,4.50
2023-03-17T03:27:47.536Z,4.50
2023-03-17T03:30:15.526Z,4.50
2023-03-17T03:32:44.352Z,4.50
2023-03-17T03:35:12.315Z,4.50
2023-03-17T03:37:42.561Z,4.50
2023-03-17T03:40:11.025Z,4.50
2023-03-17T03:42:38.828Z,4.40
2023-03-17T03:45:07.314Z,4.40
2023-03-17T03:47:37.734Z,4.40
2023-03-17T03:50:05.861Z,4.50
2023-03-17T03:52:33.843Z,4.50
2023-03-17T03:55:01.769Z,4.50
2023-03-17T03:57:30.498Z,4.50
2023-03-17T03:59:58.414Z,4.50
2023-03-17T04:02:27.410Z,4.40
2023-03-17T04:04:55.602Z,4.40
2023-03-17T04:07:23.874Z,4.40
2023-03-17T04:09:51.814Z,4.40
2023-03-17T04:12:19.931Z,4.40
2023-03-17T04:14:48.041Z,4.50
2023-03-17T04:17:19.142Z,4.50
2023-03-17T04:19:47.381Z,4.50
2023-03-17T04:22:15.538Z,4.50
2023-03-17T04:24:46.457Z,4.40
2023-03-17T04:27:15.823Z,4.40
2023-03-17T04:29:44.268Z,4.40
2023-03-17T04:32:13.877Z,4.40
2023-03-17T04:34:42.863Z,4.40
2023-03-17T04:37:11.623Z,4.50
2023-03-17T04:39:39.606Z,4.50
2023-03-17T04:42:07.941Z,4.50
2023-03-17T04:44:36.066Z,4.50
2023-03-17T04:47:04.641Z,4.60
2023-03-17T04:49:32.522Z,4.60
2023-03-17T04:52:03.434Z,4.60
2023-03-17T04:54:31.415Z,4.60
2023-03-17T04:56:59.305Z,4.50
2023-03-17T04:59:27.694Z,4.50
2023-03-17T05:01:55.647Z,4.60
2023-03-17T05:04:31.278Z,4.60
2023-03-17T05:07:03.200Z,4.60
2023-03-17T05:09:31.087Z,4.70
2023-03-17T05:11:59.103Z,4.70
2023-03-17T05:14:27.515Z,4.70
2023-03-17T05:16:55.472Z,4.70
2023-03-17T05:19:23.449Z,4.70
2023-03-17T05:21:51.901Z,4.80
2023-03-17T05:24:23.059Z,4.90
2023-03-17T05:26:51.111Z,4.90
2023-03-17T05:29:19.099Z,4.90
2023-03-17T05:31:47.765Z,4.90
2023-03-17T05:34:16.341Z,4.90
2023-03-17T05:36:45.067Z,4.90
2023-03-17T05:39:15.352Z,5.00
2023-03-17T05:41:43.300Z,5.10
2023-03-17T05:44:11.571Z,5.20
2023-03-17T05:46:42.384Z,5.30
2023-03-17T05:49:10.496Z,5.30
2023-03-17T05:51:39.425Z,5.30
2023-03-17T05:54:07.744Z,5.30
2023-03-17T05:56:38.301Z,5.20
2023-03-17T05:59:06.231Z,5.30
2023-03-17T06:01:36.539Z,5.30
2023-03-17T06:04:04.718Z,5.30
2023-03-17T06:06:32.729Z,5.30
2023-03-17T06:09:01.515Z,5.40
2023-03-17T06:11:32.100Z,5.50
2023-03-17T06:14:02.443Z,5.60
2023-03-17T06:16:33.451Z,5.60
2023-03-17T06:19:01.777Z,5.60
2023-03-17T06:21:29.814Z,5.70
2023-03-17T06:23:57.620Z,5.70
2023-03-17T06:26:26.613Z,5.80
2023-03-17T06:28:54.686Z,5.90
2023-03-17T06:31:22.650Z,5.90
2023-03-17T06:33:51.151Z,5.90
2023-03-17T06:36:19.180Z,6.00
2023-03-17T06:38:47.113Z,6.10
2023-03-17T06:41:15.369Z,6.20
2023-03-17T06:43:46.432Z,6.30
2023-03-17T06:46:14.432Z,6.40
2023-03-17T06:48:42.569Z,6.50
2023-03-17T06:51:10.462Z,6.60
2023-03-17T06:53:38.540Z,6.80
2023-03-17T06:56:06.692Z,6.90
2023-03-17T06:58:34.807Z,7.00
2023-03-17T07:01:05.844Z,7.20
2023-03-17T07:03:38.199Z,7.20
2023-03-17T07:06:06.813Z,7.40
2023-03-17T07:08:35.492Z,7.50
2023-03-17T07:11:04.913Z,7.60
2023-03-17T07:13:35.934Z,7.70
2023-03-17T07:16:04.177Z,7.90
2023-03-17T07:18:35.265Z,8.00
2023-03-17T07:21:03.399Z,8.10
2023-03-17T07:23:31.474Z,8.30
2023-03-17T07:26:01.616Z,8.50
2023-03-17T07:28:29.967Z,8.60
2023-03-17T07:30:58.429Z,8.70
2023-03-17T07:33:26.440Z,8.80
2023-03-17T07:35:54.518Z,8.90
2023-03-17T07:38:22.467Z,9.10
2023-03-17T07:40:50.485Z,9.20
2023-03-17T07:43:18.624Z,9.30
2023-03-17T07:45:47.269Z,9.30
2023-03-17T07:48:18.419Z,9.40
2023-03-17T07:50:48.960Z,9.40
2023-03-17T07:53:16.800Z,9.50
2023-03-17T07:55:44.751Z,9.70
2023-03-17T07:58:15.607Z,9.80
2023-03-17T08:00:44.118Z,10.00
2023-03-17T08:03:12.051Z,10.10
2023-03-17T08:05:40.018Z,10.10
2023-03-17T08:08:08.581Z,10.20
2023-03-17T08:10:37.029Z,10.30
2023-03-17T08:13:05.032Z,10.40
2023-03-17T08:15:33.020Z,10.40
2023-03-17T08:18:01.507Z,10.60
2023-03-17T08:20:30.219Z,10.60
2023-03-17T08:22:58.441Z,10.70
2023-03-17T08:25:29.730Z,10.80
2023-03-17T08:27:57.777Z,11.00
2023-03-17T08:30:25.773Z,11.10
2023-03-17T08:32:55.071Z,11.20
2023-03-17T08:35:23.103Z,11.20
2023-03-17T08:37:51.234Z,11.20
2023-03-17T08:40:20.247Z,11.40
2023-03-17T08:42:49.000Z,11.40
2023-03-17T08:45:18.654Z,11.40
2023-03-17T08:47:47.209Z,11.40
2023-03-17T08:50:18.909Z,11.40
2023-03-17T08:52:47.153Z,11.50
2023-03-17T08:55:15.678Z,11.60
2023-03-17T08:57:45.019Z,11.80
2023-03-17T09:00:14.226Z,12.00
2023-03-17T09:02:46.604Z,12.20
2023-03-17T09:05:15.831Z,12.30
2023-03-17T09:07:44.046Z,12.50
2023-03-17T09:10:13.964Z,12.60
2023-03-17T09:12:42.143Z,12.70
2023-03-17T09:15:12.395Z,12.80
2023-03-17T09:17:44.543Z,12.80
2023-03-17T09:20:15.141Z,12.80
2023-03-17T09:22:45.666Z,12.90
2023-03-17T09:25:13.855Z,13.00
2023-03-17T09:27:41.886Z,13.10
2023-03-17T09:30:19.366Z,13.10
2023-03-17T09:32:50.274Z,13.10
2023-03-17T09:35:18.508Z,13.30
2023-03-17T09:37:47.916Z,13.40
2023-03-17T09:40:27.521Z,13.50
2023-03-17T09:43:01.803Z,13.70
2023-03-17T09:45:42.977Z,13.90
2023-03-17T09:48:18.012Z,14.10
2023-03-17T09:50:57.908Z,14.00
2023-03-17T09:55:08.962Z,13.70
2023-03-17T09:57:40.819Z,14.60
2023-03-17T10:00:17.205Z,14.90
2023-03-17T10:02:45.801Z,15.50
2023-03-17T10:05:13.817Z,16.20
2023-03-17T10:07:49.092Z,16.70
2023-03-17T10:10:23.166Z,17.20
2023-03-17T10:12:54.222Z,17.70
2023-03-17T10:15:25.900Z,18.10
2023-03-17T10:17:53.981Z,18.40
2023-03-17T10:20:26.358Z,18.70
2023-03-17T10:22:58.563Z,19.00
2023-03-17T10:25:29.895Z,19.10
2023-03-17T10:28:17.557Z,19.40
2023-03-17T10:30:47.996Z,20.10
2023-03-17T10:33:18.457Z,20.80
2023-03-17T10:35:47.211Z,21.40
2023-03-17T10:38:16.606Z,21.70
2023-03-17T10:40:45.784Z,22.00
2023-03-17T10:43:20.391Z,21.90
2023-03-17T10:45:58.075Z,21.10
2023-03-17T10:48:27.196Z,20.50
2023-03-17T10:50:59.650Z,19.90
2023-03-17T10:53:31.143Z,19.30
2023-03-17T10:56:09.389Z,18.80
2023-03-17T10:58:37.459Z,18.30
2023-03-17T11:01:17.627Z,17.80
2023-03-17T11:03:46.503Z,17.40
2023-03-17T11:06:16.572Z,17.10
2023-03-17T11:08:50.520Z,16.70
2023-03-17T11:11:23.417Z,16.50
2023-03-17T11:13:55.867Z,16.30
2023-03-17T11:16:27.492Z,16.10
2023-03-17T11:18:57.858Z,16.00
2023-03-17T11:21:31.003Z,16.00
2023-03-17T11:23:59.065Z,16.00
2023-03-17T11:26:37.021Z,16.00
2023-03-17T11:29:07.354Z,15.80
2023-03-17T11:31:40.061Z,15.70
2023-03-17T11:34:31.552Z,15.60
2023-03-17T11:37:35.289Z,15.60
2023-03-17T11:40:08.177Z,15.50
2023-03-17T11:42:55.319Z,15.50
2023-03-17T11:45:29.786Z,15.60
2023-03-17T11:47:59.855Z,15.80
2023-03-17T11:50:37.440Z,16.10
2023-03-17T11:53:08.037Z,16.60
2023-03-17T11:55:41.943Z,17.20
2023-03-17T11:58:16.447Z,17.80
2023-03-17T12:00:52.976Z,18.30
2023-03-17T12:03:33.382Z,18.50
2023-03-17T12:06:05.847Z,18.20
2023-03-17T12:08:48.288Z,17.90
2023-03-17T12:11:20.809Z,17.60
2023-03-17T12:13:51.945Z,17.30
2023-03-17T12:16:33.588Z,17.00
2023-03-17T12:19:15.049Z,16.70
2023-03-17T12:21:52.960Z,16.40
2023-03-17T12:24:27.273Z,16.10
2023-03-17T12:27:08.906Z,15.80
2023-03-17T12:29:56.324Z,15.70
2023-03-17T12:32:33.554Z,15.70
2023-03-17T12:35:11.795Z,15.70
2023-03-17T12:37:41.602Z,15.70
2023-03-17T12:40:18.906Z,15.90
2023-03-17T12:42:59.493Z,16.00
2023-03-17T12:45:36.875Z,16.40
2023-03-17T12:48:10.919Z,16.60
2023-03-17T12:50:45.167Z,16.80
2023-03-17T12:53:19.711Z,16.70
2023-03-17T12:55:50.083Z,16.60
2023-03-17T12:58:26.411Z,16.50
2023-03-17T13:01:04.174Z,16.40
2023-03-17T13:03:33.401Z,16.30
2023-03-17T13:06:04.438Z,16.10
2023-03-17T13:08:34.651Z,16.00
2023-03-17T13:11:14.936Z,15.90
2023-03-17T13:13:52.652Z,15.80
2023-03-17T13:16:54.005Z,15.60
2023-03-17T13:19:23.897Z,15.60
2023-03-17T13:22:03.824Z,15.50
2023-03-17T13:24:37.361Z,15.30
2023-03-17T13:27:12.612Z,15.20
2023-03-17T13:29:43.557Z,15.10
2023-03-17T13:32:19.903Z,15.00
2023-03-17T13:34:53.370Z,14.90
2023-03-17T13:37:31.701Z,14.90
2023-03-17T13:40:11.061Z,14.90
2023-03-17T13:42:54.467Z,15.20
2023-03-17T13:45:36.167Z,15.80
2023-03-17T13:48:22.825Z,16.20
2023-03-17T13:50:58.254Z,16.50
2023-03-17T13:53:28.535Z,16.50
2023-03-17T13:56:09.042Z,16.20
2023-03-17T13:58:49.421Z,16.10
2023-03-17T14:01:20.700Z,16.10
2023-03-17T14:03:54.255Z,16.30
2023-03-17T14:06:27.008Z,16.40
2023-03-17T14:08:57.756Z,16.40
2023-03-17T14:11:31.921Z,16.40
2023-03-17T14:14:26.003Z,16.50
2023-03-17T14:17:19.438Z,16.60
2023-03-17T14:20:08.880Z,16.60
2023-03-17T14:22:44.843Z,16.60
2023-03-17T14:25:26.905Z,16.40
2023-03-17T14:27:57.326Z,16.40
2023-03-17T14:30:26.843Z,16.20
2023-03-17T14:33:03.902Z,16.20
2023-03-17T14:35:33.847Z,16.10
2023-03-17T14:38:02.294Z,16.20
2023-03-17T14:40:37.145Z,16.20
2023-03-17T14:43:05.333Z,16.00
2023-03-17T14:45:52.692Z,15.90
2023-03-17T14:48:28.197Z,15.60
2023-03-17T14:51:05.717Z,15.50
2023-03-17T14:53:36.256Z,15.40
2023-03-17T14:56:05.267Z,15.30
2023-03-17T14:58:48.181Z,15.20
2023-03-17T15:01:23.148Z,15.10
2023-03-17T15:03:58.524Z,15.10
2023-03-17T15:06:28.541Z,14.90
2023-03-17T15:09:03.132Z,14.80
2023-03-17T15:11:44.244Z,14.70
2023-03-17T15:14:19.295Z,14.60
2023-03-17T15:16:51.085Z,14.40
2023-03-17T15:19:19.237Z,14.30
2023-03-17T15:21:47.506Z,14.20
2023-03-17T15:24:40.225Z,14.10
2023-03-17T15:27:15.735Z,13.90
2023-03-17T15:29:47.739Z,13.80
2023-03-17T15:32:17.059Z,13.70
2023-03-17T15:34:45.314Z,13.60
2023-03-17T15:37:24.129Z,13.50
2023-03-17T15:39:53.364Z,13.40
2023-03-17T15:42:22.656Z,13.30
2023-03-17T15:44:56.377Z,13.20
2023-03-17T15:47:26.913Z,13.10
2023-03-17T15:50:00.011Z,13.00
2023-03-17T15:52:28.426Z,12.90
2023-03-17T15:54:57.859Z,12.80
2023-03-17T15:57:27.539Z,12.70
2023-03-17T15:59:57.721Z,12.70
2023-03-17T16:02:25.868Z,12.60
2023-03-17T16:04:54.287Z,12.60
2023-03-17T16:07:22.754Z,12.50
2023-03-17T16:09:51.150Z,12.40
2023-03-17T16:12:19.314Z,12.30
2023-03-17T16:14:48.254Z,12.20
2023-03-17T16:17:34.380Z,12.00
2023-03-17T16:20:02.440Z,11.90
2023-03-17T16:22:40.912Z,11.70
2023-03-17T16:25:18.625Z,11.50
2023-03-17T16:27:49.616Z,11.40
2023-03-17T16:30:37.843Z,11.30
2023-03-17T16:33:17.900Z,11.10
2023-03-17T16:35:48.824Z,11.00
2023-03-17T16:38:18.174Z,10.90
2023-03-17T16:40:47.700Z,10.80
2023-03-17T16:43:25.069Z,10.70
2023-03-17T16:46:00.372Z,10.50
2023-03-17T16:48:28.829Z,10.50
2023-03-17T16:50:57.012Z,10.50
2023-03-17T16:53:28.092Z,10.50
2023-03-17T16:55:56.864Z,10.40
2023-03-17T16:58:26.002Z,10.30
2023-03-17T17:01:03.948Z,10.30
2023-03-17T17:03:32.086Z,10.30
2023-03-17T17:06:00.035Z,10.00
2023-03-17T17:08:32.595Z,10.00
2023-03-17T17:11:00.792Z,9.90
2023-03-17T17:13:28.991Z,9.80
2023-03-17T17:15:57.291Z,9.70
2023-03-17T17:18:25.275Z,9.60
2023-03-17T17:20:54.443Z,9.50
2023-03-17T17:23:23.504Z,9.50
2023-03-17T17:25:52.197Z,9.40
2023-03-17T17:28:24.978Z,9.30
2023-03-17T17:30:53.408Z,9.20
2023-03-17T17:33:21.984Z,9.10
2023-03-17T17:35:50.389Z,9.10
2023-03-17T17:38:23.321Z,9.00
2023-03-17T17:40:52.054Z,8.90
2023-03-17T17:43:20.424Z,8.80
2023-03-17T17:45:51.616Z,8.90
2023-03-17T17:48:23.779Z,8.70
2023-03-17T17:50:52.915Z,8.60
2023-03-17T17:53:20.912Z,8.60
2023-03-17T17:55:50.276Z,8.50
2023-03-17T17:58:21.825Z,8.40
2023-03-17T18:00:50.339Z,8.40
2023-03-17T18:03:22.577Z,8.30
2023-03-17T18:05:53.586Z,8.20
2023-03-17T18:08:22.242Z,8.20
2023-03-17T18:10:52.092Z,8.00
2023-03-17T18:13:20.826Z,8.00
2023-03-17T18:15:48.809Z,7.90
2023-03-17T18:18:16.735Z,7.90
2023-03-17T18:20:47.135Z,7.90
2023-03-17T18:23:16.787Z,7.90
2023-03-17T18:25:46.921Z,7.80
2023-03-17T18:28:14.891Z,7.70
2023-03-17T18:30:43.850Z,7.60
2023-03-17T18:33:15.379Z,7.50
2023-03-17T18:35:44.270Z,7.50
2023-03-17T18:38:13.222Z,7.50
2023-03-17T18:40:42.319Z,7.30
2023-03-17T18:43:10.177Z,7.30
2023-03-17T18:45:38.377Z,7.20
2023-03-17T18:48:08.785Z,7.20
2023-03-17T18:50:37.316Z,7.20
2023-03-17T18:53:05.365Z,7.20
2023-03-17T18:55:33.401Z,7.20
2023-03-17T18:58:01.685Z,7.10
2023-03-17T19:00:29.928Z,7.10
2023-03-17T19:02:58.116Z,7.00
2023-03-17T19:05:29.432Z,7.00
2023-03-17T19:07:59.644Z,7.00
2023-03-17T19:10:27.715Z,6.90
2023-03-17T19:12:59.215Z,6.90
2023-03-17T19:15:27.244Z,6.90
2023-03-17T19:17:57.381Z,6.80
2023-03-17T19:20:25.337Z,6.80
2023-03-17T19:22:54.347Z,6.80
2023-03-17T19:25:22.451Z,6.70
2023-03-17T19:27:52.542Z,6.70
2023-03-17T19:30:20.908Z,6.70
2023-03-17T19:32:48.820Z,6.70
2023-03-17T19:35:19.422Z,6.70
2023-03-17T19:37:47.566Z,6.70
2023-03-17T19:40:15.547Z,6.80
2023-03-17T19:42:43.617Z,6.80
2023-03-17T19:45:13.988Z,6.90
2023-03-17T19:47:42.715Z,6.90
2023-03-17T19:50:10.967Z,6.90
2023-03-17T19:52:38.913Z,6.90
2023-03-17T19:55:08.336Z,6.90
2023-03-17T19:57:36.885Z,6.80
2023-03-17T20:00:06.135Z,6.80
2023-03-17T20:02:38.226Z,6.80
2023-03-17T20:05:07.012Z,6.70
2023-03-17T20:07:35.328Z,6.70
2023-03-17T20:10:04.315Z,6.60
2023-03-17T20:12:33.213Z,6.60
2023-03-17T20:15:01.819Z,6.50
2023-03-17T20:17:30.252Z,6.40
2023-03-17T20:19:58.425Z,6.30
2023-03-17T20:22:26.386Z,6.20
2023-03-17T20:24:54.271Z,6.20
2023-03-17T20:27:22.913Z,6.10
2023-03-17T20:29:51.729Z,6.10
2023-03-17T20:32:20.285Z,6.00
2023-03-17T20:34:49.253Z,6.00
2023-03-17T20:37:17.231Z,5.90
2023-03-17T20:39:49.343Z,5.90
2023-03-17T20:42:20.689Z,5.90
2023-03-17T20:44:53.160Z,5.90
2023-03-17T20:47:23.847Z,6.00
2023-03-17T20:49:53.492Z,6.10
2023-03-17T20:52:22.662Z,6.10
2023-03-17T20:54:51.400Z,6.10
2023-03-17T20:57:19.436Z,6.10
2023-03-17T20:59:49.228Z,6.10
2023-03-17T21:02:17.858Z,6.10
2023-03-17T21:04:49.328Z,6.10
2023-03-17T21:07:20.297Z,6.20
2023-03-17T21:09:48.742Z,6.20
2023-03-17T21:12:20.879Z,6.20
2023-03-17T21:14:49.729Z,6.10
2023-03-17T21:17:18.810Z,6.10
2023-03-17T21:19:47.768Z,6.00
2023-03-17T21:22:16.401Z,6.00
2023-03-17T21:24:46.941Z,6.00
2023-03-17T21:27:18.224Z,5.90
2023-03-17T21:29:46.485Z,5.80
2023-03-17T21:32:15.332Z,5.80
2023-03-17T21:34:43.392Z,5.70
2023-03-17T21:37:11.318Z,5.70
2023-03-17T21:39:39.493Z,5.60
2023-03-17T21:42:10.926Z,5.50
2023-03-17T21:44:41.861Z,5.40
2023-03-17T21:47:13.073Z,5.40
2023-03-17T21:49:44.673Z,5.40
2023-03-17T21:52:16.071Z,5.50
2023-03-17T21:54:44.058Z,5.50
2023-03-17T21:57:12.395Z,5.60
2023-03-17T21:59:42.626Z,5.60
2023-03-17T22:02:11.988Z,5.60
2023-03-17T22:04:43.777Z,5.60
2023-03-17T22:07:12.481Z,5.60
2023-03-17T22:09:44.046Z,5.60
2023-03-17T22:12:12.654Z,5.60
2023-03-17T22:14:42.932Z,5.60
2023-03-17T22:17:13.153Z,5.60
2023-03-17T22:19:43.281Z,5.60
2023-03-17T22:22:16.613Z,5.60
2023-03-17T22:24:47.879Z,5.60
2023-03-17T22:27:16.768Z,5.50
2023-03-17T22:29:49.546Z,5.50
2023-03-17T22:32:17.656Z,5.40
2023-03-17T22:34:47.695Z,5.40
2023-03-17T22:37:15.578Z,5.30
2023-03-17T22:39:46.054Z,5.30
2023-03-17T22:42:17.020Z,5.20
2023-03-17T22:44:44.994Z,5.20
2023-03-17T22:47:15.984Z,5.10
2023-03-17T22:49:46.347Z,5.20
2023-03-17T22:52:14.486Z,5.20
2023-03-17T22:54:44.754Z,5.20
2023-03-17T22:57:12.897Z,5.20
2023-03-17T22:59:40.842Z,5.30
2023-03-17T23:02:09.003Z,5.30
2023-03-17T23:04:39.132Z,5.30
2023-03-17T23:07:11.474Z,5.30
2023-03-17T23:09:41.685Z,5.40
2023-03-17T23:12:11.005Z,5.30
2023-03-17T23:14:39.375Z,5.30
2023-03-17T23:17:09.627Z,5.20
2023-03-17T23:19:40.615Z,5.20
2023-03-17T23:22:11.319Z,5.10
2023-03-17T23:24:41.637Z,5.10
2023-03-17T23:27:11.944Z,5.00
2023-03-17T23:29:42.827Z,5.10
2023-03-17T23:32:14.482Z,5.00
2023-03-17T23:34:42.508Z,5.10
2023-03-17T23:37:10.469Z,5.00
2023-03-17T23:39:41.614Z,5.00
2023-03-17T23:42:11.820Z,5.00
2023-03-17T23:44:42.156Z,5.00
2023-03-17T23:47:10.861Z,5.00
2023-03-17T23:49:39.243Z,5.00
2023-03-17T23:52:09.359Z,5.00
2023-03-17T23:54:37.527Z,5.00
2023-03-17T23:57:05.683Z,5.00
2023-03-17T23:59:36.380Z,5.00
